YWLM/NTL METAR and TAF weather

Enter ICAO airport designator
Station Type Date Time Source
YWLM METAR 2021/04/13 07:00 UTC NOAA

YWLM 130700Z 09007KT CAVOK 19/12 Q1018


Station Type Date Time Source
YWLM Decoded METAR 2021/04/13 07:00 UTC NOAA

Station name not available
Apr 13, 2021 - 03:00 AM EDT / 2021.04.13 0700 UTC
Wind: from the E (090 degrees) at 8 MPH (7 KT):0
Visibility: greater than 7 mile(s):0
Temperature: 66 F (19 C)
Dew Point: 53 F (12 C)
Relative Humidity: 63%
Pressure (altimeter): 30.06 in. Hg (1018 hPa)
ob: YWLM 130700Z 09007KT CAVOK 19/12 Q1018
cycle: 7

Station Type Date Time Source
YWLM TAF 2021/04/13 06:36 UTC NOAA

TAF TAF YWLM 130507Z 1306/1406 12010KT 9999 FEW040
FM130700 05007KT CAVOK
FM131100 33007KT CAVOK
FM140000 31015G25KT CAVOK

Example: see airport list